Time;durP1;ratioP1;P1;durP2;ratioP2;P2;SDS_P1;SDS_P2;PMS_P1;PMS_P2;Temp;Humidity;BMP_temperature;BMP_pressure;BME280_temperature;BME280_humidity;BME280_pressure;Samples;Min_cycle;Max_cycle;Signal;HPM_P1;HPM_P2
2023/01/19 00:01:41;;;;;;;10.80;5.67;;;;;;;0.52;100.00;95123.78;4979450;28;20256;-70
2023/01/19 00:04:08;;;;;;;16.47;5.70;;;;;;;0.60;100.00;95131.69;4979654;28;20211;-70
2023/01/19 00:06:34;;;;;;;11.63;4.93;;;;;;;0.54;99.00;95124.47;4979571;28;20229;-70
2023/01/19 00:09:02;;;;;;;12.07;5.10;;;;;;;0.58;98.47;95131.00;4978677;28;20235;-69
2023/01/19 00:11:29;;;;;;;14.20;5.60;;;;;;;0.38;99.72;95136.41;4979295;28;20210;-69
2023/01/19 00:13:56;;;;;;;13.60;5.40;;;;;;;0.38;99.41;95142.41;4979315;28;20207;-69
2023/01/19 00:16:23;;;;;;;11.90;4.80;;;;;;;0.32;98.22;95142.13;4979188;28;21213;-70
2023/01/19 00:18:51;;;;;;;11.33;4.77;;;;;;;0.39;98.41;95146.63;4979026;28;20234;-69
2023/01/19 00:21:18;;;;;;;8.27;4.27;;;;;;;0.24;97.85;95153.25;4978764;28;20239;-69
2023/01/19 00:23:46;;;;;;;10.77;4.90;;;;;;;0.18;98.49;95148.63;4978325;28;20801;-70
2023/01/19 00:26:16;;;;;;;15.17;5.00;;;;;;;0.29;98.52;95152.81;4979043;28;20242;-70
2023/01/19 00:28:42;;;;;;;8.10;3.53;;;;;;;0.18;98.82;95150.41;4979129;28;20259;-69
2023/01/19 00:31:09;;;;;;;13.10;5.00;;;;;;;0.25;97.86;95146.28;4979120;28;20327;-69
2023/01/19 00:33:36;;;;;;;10.50;4.57;;;;;;;0.25;98.42;95152.25;4978303;28;20537;-69
2023/01/19 00:36:02;;;;;;;10.00;4.30;;;;;;;0.29;97.43;95152.81;4978903;28;20214;-70
2023/01/19 00:38:29;;;;;;;11.23;4.47;;;;;;;0.27;97.93;95145.19;4977995;28;20226;-70
2023/01/19 00:40:55;;;;;;;12.30;4.90;;;;;;;0.22;97.09;95146.56;4978719;28;20207;-69
2023/01/19 00:43:23;;;;;;;15.63;5.17;;;;;;;0.31;96.62;95145.72;4979055;28;20221;-70
2023/01/19 00:45:49;;;;;;;9.83;4.77;;;;;;;0.17;96.91;95149.56;4978374;28;20211;-70
2023/01/19 00:48:16;;;;;;;9.37;4.07;;;;;;;0.16;96.78;95152.31;4978392;28;20234;-70
2023/01/19 00:50:42;;;;;;;12.23;5.30;;;;;;;0.18;96.58;95153.78;4978824;28;20569;-69
2023/01/19 00:53:09;;;;;;;10.07;4.37;;;;;;;0.13;95.83;95153.41;4978757;28;21296;-69
2023/01/19 00:55:35;;;;;;;16.60;4.63;;;;;;;0.13;95.81;95153.41;4977839;28;20210;-70
2023/01/19 00:58:02;;;;;;;10.00;4.63;;;;;;;0.05;96.57;95149.88;4978154;28;20226;-69
2023/01/19 01:00:30;;;;;;;11.03;4.13;;;;;;;0.09;96.60;95152.06;4978684;28;20664;-70
2023/01/19 01:02:57;;;;;;;12.80;4.47;;;;;;;-0.08;97.20;95166.69;4978151;28;20214;-69
2023/01/19 01:05:24;;;;;;;9.63;4.70;;;;;;;-0.11;96.98;95164.38;4977868;28;20210;-70
2023/01/19 01:07:50;;;;;;;14.73;5.00;;;;;;;-0.27;97.62;95167.50;4978199;28;20238;-70
2023/01/19 01:10:19;;;;;;;9.47;4.10;;;;;;;-0.31;98.53;95175.69;4978695;28;20214;-70
2023/01/19 01:12:46;;;;;;;10.90;4.50;;;;;;;-0.36;98.70;95173.50;4978842;28;20216;-70
2023/01/19 01:15:14;;;;;;;9.80;5.20;;;;;;;-0.34;98.40;95181.16;4978452;28;20217;-69
2023/01/19 01:17:46;;;;;;;10.80;5.13;;;;;;;-0.44;98.45;95183.72;4978034;28;20229;-70
2023/01/19 01:20:15;;;;;;;13.37;5.87;;;;;;;-0.42;99.27;95186.19;4978009;28;20211;-69
2023/01/19 01:22:44;;;;;;;8.17;4.40;;;;;;;-0.51;99.11;95187.00;4978680;28;20209;-69
2023/01/19 01:25:10;;;;;;;9.07;4.07;;;;;;;-0.55;99.44;95185.66;4977416;28;20218;-70
2023/01/19 01:27:37;;;;;;;11.03;4.60;;;;;;;-0.50;98.02;95192.06;4978257;28;20231;-69
2023/01/19 01:30:04;;;;;;;9.17;4.40;;;;;;;-0.46;97.92;95196.00;4977952;28;20218;-69
2023/01/19 01:32:31;;;;;;;9.40;4.03;;;;;;;-0.43;97.16;95193.13;4977196;28;20207;-69
2023/01/19 01:34:58;;;;;;;8.57;4.13;;;;;;;-0.52;97.78;95191.38;4977359;28;20576;-70
2023/01/19 01:37:25;;;;;;;21.27;4.60;;;;;;;-0.55;98.00;95201.16;4978096;28;20233;-69
2023/01/19 01:39:51;;;;;;;11.77;4.97;;;;;;;-0.59;98.80;95199.81;4977537;28;20582;-69
2023/01/19 01:42:20;;;;;;;15.23;5.03;;;;;;;-0.53;98.25;95199.28;4977734;28;20218;-69
2023/01/19 01:44:51;;;;;;;11.60;4.30;;;;;;;-0.47;97.95;95206.47;4977304;28;20656;-69
2023/01/19 01:47:25;;;;;;;16.67;5.70;;;;;;;-0.47;98.11;95216.81;4977474;28;20235;-70
2023/01/19 01:49:55;;;;;;;14.40;5.57;;;;;;;-0.56;97.25;95215.03;4977627;28;20655;-69
2023/01/19 01:52:27;;;;;;;16.50;5.63;;;;;;;-0.47;98.12;95212.47;4977814;28;20216;-70
2023/01/19 01:54:54;;;;;;;14.33;5.30;;;;;;;-0.53;97.66;95214.78;4977381;28;20221;-69
2023/01/19 01:57:21;;;;;;;14.67;4.83;;;;;;;-0.52;98.01;95217.25;4978143;28;20231;-70
2023/01/19 01:59:50;;;;;;;9.60;4.60;;;;;;;-0.45;97.53;95214.94;4981542;28;20729;-70
2023/01/19 02:05:07;;;;;;;10.33;4.67;;;;;;;-0.53;96.20;95227.72;4980705;28;20845;-70
2023/01/19 02:13:19;;;;;;;11.67;4.23;;;;;;;-0.54;95.98;95239.03;4981525;28;20718;-69
2023/01/19 02:15:47;;;;;;;16.57;5.00;;;;;;;-0.50;95.24;95224.84;4981112;28;20221;-69
2023/01/19 02:18:14;;;;;;;8.10;4.37;;;;;;;-0.51;94.91;95230.97;4981918;28;20231;-69
2023/01/19 02:20:45;;;;;;;10.73;5.50;;;;;;;-0.48;94.47;95218.59;4980949;28;20659;-69
2023/01/19 02:23:20;;;;;;;10.13;4.37;;;;;;;-0.49;94.36;95221.31;4982455;28;20211;-70
2023/01/19 02:25:48;;;;;;;11.27;4.80;;;;;;;-0.49;93.99;95221.31;4981409;28;20690;-70
2023/01/19 02:28:15;;;;;;;15.50;4.97;;;;;;;-0.57;93.44;95222.00;4981751;28;20633;-69
2023/01/19 02:30:43;;;;;;;9.27;3.90;;;;;;;-0.65;94.14;95231.38;4980834;28;20206;-70
2023/01/19 02:33:09;;;;;;;9.40;4.20;;;;;;;-0.69;94.62;95236.97;4981947;28;20215;-70
2023/01/19 02:35:38;;;;;;;10.53;4.77;;;;;;;-0.67;94.50;95235.06;4980854;28;20206;-70
2023/01/19 02:38:07;;;;;;;10.37;4.37;;;;;;;-0.78;95.10;95232.59;4981391;28;20259;-70
2023/01/19 02:40:34;;;;;;;8.73;4.80;;;;;;;-0.79;95.22;95236.97;4981462;28;20206;-70
2023/01/19 02:43:04;;;;;;;9.90;4.50;;;;;;;-0.69;94.67;95237.78;4981088;28;20218;-70
2023/01/19 02:45:30;;;;;;;8.37;4.30;;;;;;;-0.84;94.13;95240.88;4980000;28;20218;-70
2023/01/19 02:47:57;;;;;;;12.57;4.83;;;;;;;-0.81;94.93;95249.19;4981086;28;20320;-70
2023/01/19 02:50:42;;;;;;;8.37;4.67;;;;;;;-0.64;94.67;95248.53;4981218;28;20214;-70
2023/01/19 02:54:12;;;;;;;8.57;3.90;;;;;;;-0.66;93.81;95250.44;4981140;28;20249;-70
2023/01/19 02:56:46;;;;;;;10.57;4.20;;;;;;;-0.81;94.81;95254.38;4939487;29;20298;-70
2023/01/19 02:59:28;;;;;;;10.53;4.83;;;;;;;-0.85;96.14;95263.34;4972154;28;20285;-70
2023/01/19 03:02:25;;;;;;;11.23;4.47;;;;;;;-0.80;95.51;95257.75;4980287;28;20213;-70
2023/01/19 03:05:00;;;;;;;9.23;4.80;;;;;;;-0.81;95.11;95262.13;4980024;28;20227;-70
2023/01/19 03:07:36;;;;;;;11.47;4.43;;;;;;;-0.81;94.51;95259.53;4980364;28;20231;-70
2023/01/19 03:10:12;;;;;;;14.60;4.70;;;;;;;-0.90;94.92;95262.09;4979693;28;20239;-70
2023/01/19 03:12:45;;;;;;;11.97;5.07;;;;;;;-0.90;94.82;95265.50;4980592;28;20221;-70
2023/01/19 03:15:21;;;;;;;9.20;4.13;;;;;;;-0.95;94.76;95262.50;4979757;28;20241;-70
2023/01/19 03:17:50;;;;;;;8.30;4.20;;;;;;;-1.03;95.79;95266.66;4980212;28;20261;-69
2023/01/19 03:20:20;;;;;;;11.33;4.47;;;;;;;-0.97;95.44;95263.56;4980761;28;20207;-69
2023/01/19 03:22:50;;;;;;;9.83;4.53;;;;;;;-0.98;95.11;95265.34;4980485;28;20211;-70
2023/01/19 03:25:18;;;;;;;19.50;5.63;;;;;;;-1.04;95.35;95263.28;4979538;28;20691;-70
2023/01/19 03:27:47;;;;;;;8.67;4.40;;;;;;;-1.02;95.62;95263.97;4980730;28;20278;-69
2023/01/19 03:30:20;;;;;;;18.03;5.70;;;;;;;-1.06;94.81;95259.19;4980605;28;20211;-70
2023/01/19 03:32:51;;;;;;;9.53;4.77;;;;;;;-1.00;93.93;95261.25;4979552;28;20221;-69
2023/01/19 03:35:21;;;;;;;15.10;4.97;;;;;;;-1.10;94.08;95266.38;4979706;28;20221;-70
2023/01/19 03:37:52;;;;;;;11.03;4.33;;;;;;;-1.06;94.04;95265.19;4980418;28;20640;-70
2023/01/19 03:40:18;;;;;;;10.73;4.53;;;;;;;-1.15;94.16;95265.94;4980187;28;20245;-70
2023/01/19 03:42:47;;;;;;;12.93;5.20;;;;;;;-1.07;94.61;95271.31;4980014;28;20217;-70
2023/01/19 03:45:15;;;;;;;7.50;4.23;;;;;;;-1.08;94.93;95269.66;4979093;28;20322;-69
2023/01/19 03:47:42;;;;;;;17.40;5.83;;;;;;;-1.18;95.34;95265.41;4979549;28;20239;-69
2023/01/19 03:50:16;;;;;;;11.40;4.97;;;;;;;-1.06;95.21;95269.53;4980028;28;20383;-70
2023/01/19 03:52:43;;;;;;;9.23;4.10;;;;;;;-1.15;95.21;95270.31;4980097;28;20998;-70
2023/01/19 03:55:10;;;;;;;7.50;3.90;;;;;;;-1.14;94.03;95270.19;4978996;28;20211;-69
2023/01/19 03:57:37;;;;;;;12.83;5.13;;;;;;;-1.12;94.46;95273.47;4979431;28;20235;-69
2023/01/19 04:00:04;;;;;;;11.87;5.27;;;;;;;-1.09;94.60;95280.13;4979474;28;20210;-69
2023/01/19 04:02:32;;;;;;;9.03;4.40;;;;;;;-1.05;94.76;95282.31;4979453;28;20278;-70
2023/01/19 04:04:58;;;;;;;11.83;4.77;;;;;;;-1.22;94.39;95282.94;4978751;28;20218;-69
2023/01/19 04:07:25;;;;;;;9.20;4.50;;;;;;;-1.20;95.39;95277.63;4979661;28;20219;-69
2023/01/19 04:09:52;;;;;;;14.30;5.70;;;;;;;-1.22;95.38;95276.97;4979480;28;20617;-70
2023/01/19 04:12:18;;;;;;;13.50;5.33;;;;;;;-1.14;95.29;95275.34;4979245;28;20388;-69
2023/01/19 04:14:45;;;;;;;14.13;5.47;;;;;;;-1.16;95.19;95273.84;4978994;28;20330;-70
2023/01/19 04:17:11;;;;;;;9.87;5.00;;;;;;;-1.17;94.91;95280.78;4979315;28;20207;-69
2023/01/19 04:19:39;;;;;;;20.93;6.80;;;;;;;-1.09;94.41;95280.13;4979398;28;20250;-69
2023/01/19 04:22:06;;;;;;;21.57;8.83;;;;;;;-1.19;94.88;95282.66;4978349;28;20561;-69
2023/01/19 04:24:32;;;;;;;23.37;8.60;;;;;;;-1.20;95.77;95281.06;4978337;28;20229;-69
2023/01/19 04:26:59;;;;;;;17.37;7.03;;;;;;;-1.26;95.94;95279.91;4979432;28;20209;-69
2023/01/19 04:29:25;;;;;;;10.43;5.30;;;;;;;-1.36;95.79;95279.88;4979305;28;20222;-70
2023/01/19 04:31:51;;;;;;;17.00;5.43;;;;;;;-1.33;96.82;95276.22;4979232;28;20217;-70
2023/01/19 04:34:18;;;;;;;11.20;5.50;;;;;;;-1.24;96.13;95284.00;4978411;28;20691;-70
2023/01/19 04:36:49;;;;;;;17.17;5.77;;;;;;;-1.23;95.46;95286.47;4979496;28;20863;-70
2023/01/19 04:39:16;;;;;;;10.50;5.27;;;;;;;-1.25;95.42;95281.56;4978985;28;20229;-70
2023/01/19 04:41:42;;;;;;;11.47;4.60;;;;;;;-1.23;95.50;95279.66;4978756;28;20669;-69
2023/01/19 04:44:09;;;;;;;12.53;6.63;;;;;;;-1.22;95.16;95277.78;4977876;28;20207;-69
2023/01/19 04:46:35;;;;;;;13.17;5.83;;;;;;;-1.20;94.59;95286.22;4980223;28;20587;-70
2023/01/19 04:49:02;;;;;;;12.97;6.20;;;;;;;-1.23;93.83;95289.03;4978200;28;20252;-69
2023/01/19 04:51:28;;;;;;;14.83;4.80;;;;;;;-1.24;94.48;95288.38;4978654;28;20206;-69
2023/01/19 04:53:57;;;;;;;10.90;5.23;;;;;;;-1.16;94.00;95287.59;4978350;28;20213;-69
2023/01/19 04:56:23;;;;;;;9.33;5.37;;;;;;;-1.23;94.24;95290.81;4979173;28;20283;-70
2023/01/19 04:58:50;;;;;;;12.43;4.77;;;;;;;-1.23;94.79;95289.97;4978350;28;20233;-70
2023/01/19 05:01:16;;;;;;;19.27;5.97;;;;;;;-1.20;94.59;95295.72;4979063;28;20218;-69
2023/01/19 05:03:43;;;;;;;18.43;6.20;;;;;;;-1.19;93.95;95297.38;4977762;28;20202;-70
2023/01/19 05:06:09;;;;;;;24.77;6.40;;;;;;;-1.24;93.45;95290.97;4978397;28;20580;-70
2023/01/19 05:08:36;;;;;;;10.00;4.70;;;;;;;-1.23;93.33;95289.97;4978947;28;20230;-70
2023/01/19 05:11:04;;;;;;;21.17;6.43;;;;;;;-1.25;95.10;95299.66;4978369;28;21001;-69
2023/01/19 05:13:32;;;;;;;20.43;6.47;;;;;;;-1.31;94.33;95302.75;4977363;28;20696;-69
2023/01/19 05:15:58;;;;;;;20.80;5.93;;;;;;;-1.29;94.54;95295.69;4977792;28;20214;-69
2023/01/19 05:18:25;;;;;;;17.90;5.83;;;;;;;-1.33;93.99;95294.31;4978447;28;20217;-69
2023/01/19 05:20:51;;;;;;;15.43;5.83;;;;;;;-1.35;95.23;95296.19;4977688;28;20214;-69
2023/01/19 05:23:18;;;;;;;19.13;6.73;;;;;;;-1.40;94.62;95295.75;4978264;28;20210;-69
2023/01/19 05:25:44;;;;;;;25.53;7.17;;;;;;;-1.37;95.08;95300.69;4976085;28;20206;-70
2023/01/19 05:28:14;;;;;;;18.87;6.07;;;;;;;-1.35;95.40;95301.38;4978092;28;20686;-69
2023/01/19 05:30:40;;;;;;;16.60;6.03;;;;;;;-1.37;94.79;95298.91;4978179;28;20208;-69
2023/01/19 05:33:07;;;;;;;16.80;6.03;;;;;;;-1.37;94.38;95298.91;4977425;28;20225;-69
2023/01/19 05:35:33;;;;;;;18.80;7.10;;;;;;;-1.43;94.24;95298.63;4977629;28;20199;-69
2023/01/19 05:38:00;;;;;;;19.43;6.93;;;;;;;-1.47;94.45;95305.00;4977945;28;20235;-69
2023/01/19 05:40:27;;;;;;;15.63;7.23;;;;;;;-1.45;94.06;95300.50;4978410;28;20256;-69
2023/01/19 05:42:53;;;;;;;12.57;6.20;;;;;;;-1.43;93.96;95302.00;4977930;28;20223;-69
2023/01/19 05:45:21;;;;;;;13.07;5.63;;;;;;;-1.40;93.32;95303.50;4977454;28;20695;-69
2023/01/19 05:47:48;;;;;;;15.70;6.10;;;;;;;-1.43;93.69;95308.94;4977729;28;20230;-69
2023/01/19 05:50:15;;;;;;;18.77;6.23;;;;;;;-1.48;93.77;95306.72;4978148;28;20237;-69
2023/01/19 05:52:41;;;;;;;17.57;8.33;;;;;;;-1.46;93.84;95304.84;4977502;28;20198;-69
2023/01/19 05:55:08;;;;;;;9.00;5.30;;;;;;;-1.50;93.28;95306.06;4977071;28;20210;-69
2023/01/19 05:57:35;;;;;;;11.93;5.27;;;;;;;-1.64;93.71;95305.56;4977942;28;20221;-70
2023/01/19 06:00:02;;;;;;;12.10;4.77;;;;;;;-1.55;93.69;95310.78;4978287;28;20206;-69
2023/01/19 06:02:29;;;;;;;14.63;4.70;;;;;;;-1.61;93.40;95313.06;4976867;28;20213;-69
2023/01/19 06:04:56;;;;;;;12.47;5.93;;;;;;;-1.55;94.42;95307.41;4977223;28;20217;-69
2023/01/19 06:07:23;;;;;;;11.40;5.03;;;;;;;-1.53;94.15;95313.22;4977704;28;20235;-69
2023/01/19 06:09:50;;;;;;;10.93;5.20;;;;;;;-1.52;94.00;95315.69;4977870;28;20320;-70
2023/01/19 06:12:16;;;;;;;9.87;5.00;;;;;;;-1.55;93.62;95320.31;4977828;28;20205;-70
2023/01/19 06:14:43;;;;;;;13.33;6.57;;;;;;;-1.54;93.15;95315.00;4977382;28;20207;-70
2023/01/19 06:17:09;;;;;;;13.23;5.60;;;;;;;-1.59;93.09;95321.47;4977248;28;20219;-69
2023/01/19 06:19:37;;;;;;;17.80;6.80;;;;;;;-1.53;93.99;95321.78;4977217;28;20295;-69
2023/01/19 06:22:03;;;;;;;9.27;5.57;;;;;;;-1.63;93.95;95327.84;4978215;28;20203;-69
2023/01/19 06:24:30;;;;;;;10.47;5.40;;;;;;;-1.58;93.68;95328.28;4977017;28;20203;-69
2023/01/19 06:26:56;;;;;;;15.17;5.73;;;;;;;-1.64;93.97;95333.97;4977729;28;20203;-69
2023/01/19 06:29:23;;;;;;;14.77;5.97;;;;;;;-1.59;93.51;95331.81;4977451;28;20688;-69
2023/01/19 06:31:49;;;;;;;14.90;5.97;;;;;;;-1.65;93.81;95340.09;4976773;28;20207;-69
2023/01/19 06:34:16;;;;;;;14.27;6.50;;;;;;;-1.59;92.04;95339.56;4976609;28;20214;-69
2023/01/19 06:36:44;;;;;;;14.60;5.90;;;;;;;-1.77;92.99;95336.75;4977465;28;20200;-69
2023/01/19 06:39:10;;;;;;;15.23;5.27;;;;;;;-1.83;92.71;95333.84;4977199;28;20230;-69
2023/01/19 06:41:37;;;;;;;15.10;5.07;;;;;;;-1.75;93.05;95334.84;4977583;28;20443;-69
2023/01/19 06:44:04;;;;;;;13.83;4.23;;;;;;;-1.77;93.82;95335.91;4977476;28;20212;-69
2023/01/19 06:46:31;;;;;;;15.17;6.33;;;;;;;-1.69;94.00;95333.53;4981219;28;20200;-69
2023/01/19 06:48:58;;;;;;;14.33;5.70;;;;;;;-1.79;94.14;95341.19;4980420;28;20238;-69
2023/01/19 06:51:24;;;;;;;11.67;4.87;;;;;;;-1.82;93.54;95340.63;4981244;28;20204;-69
2023/01/19 06:53:52;;;;;;;9.53;4.73;;;;;;;-1.72;93.63;95344.94;4980060;28;20207;-69
2023/01/19 06:56:18;;;;;;;13.07;5.03;;;;;;;-1.85;92.78;95355.56;4982088;28;20204;-69
2023/01/19 06:58:47;;;;;;;13.20;4.90;;;;;;;-1.74;93.90;95358.91;4981187;28;20254;-69
2023/01/19 07:01:14;;;;;;;11.17;5.10;;;;;;;-1.78;93.81;95367.84;4980806;28;20592;-69
2023/01/19 07:03:40;;;;;;;12.90;5.63;;;;;;;-1.83;93.44;95368.22;4979817;28;20211;-69
2023/01/19 07:06:07;;;;;;;7.67;4.60;;;;;;;-1.71;93.71;95372.38;4981141;28;20210;-69
2023/01/19 07:08:33;;;;;;;9.73;5.07;;;;;;;-1.68;93.25;95372.13;4980421;28;20227;-68
2023/01/19 07:11:03;;;;;;;12.40;5.03;;;;;;;-1.67;93.91;95378.09;4980529;28;20302;-69
2023/01/19 07:13:30;;;;;;;12.03;5.50;;;;;;;-1.72;93.38;95375.06;4979972;28;20222;-69
2023/01/19 07:15:56;;;;;;;9.17;4.83;;;;;;;-2.12;94.26;95373.25;4980077;28;20222;-69
2023/01/19 07:18:23;;;;;;;6.60;4.20;;;;;;;-2.00;93.68;95378.25;4980345;28;20233;-69
2023/01/19 07:20:49;;;;;;;10.60;4.40;;;;;;;-1.94;93.68;95374.38;4980867;28;20208;-69
2023/01/19 07:23:16;;;;;;;9.20;4.87;;;;;;;-1.86;94.70;95377.97;4980321;28;20210;-69
2023/01/19 07:25:44;;;;;;;12.00;6.00;;;;;;;-1.82;94.15;95374.19;4979426;28;20674;-69
2023/01/19 07:28:14;;;;;;;9.87;5.33;;;;;;;-1.79;94.21;95374.75;4980547;28;20241;-69
2023/01/19 07:30:41;;;;;;;13.43;5.80;;;;;;;-1.87;94.22;95384.09;4980228;28;20226;-69
2023/01/19 07:33:07;;;;;;;16.00;5.30;;;;;;;-1.83;94.55;95376.88;4980832;28;20313;-69
2023/01/19 07:35:34;;;;;;;12.33;4.57;;;;;;;-1.94;94.76;95384.69;4979006;28;20210;-69
2023/01/19 07:38:00;;;;;;;11.53;4.87;;;;;;;-1.84;95.56;95390.75;4980188;28;20591;-69
2023/01/19 07:40:27;;;;;;;16.67;5.23;;;;;;;-1.80;94.96;95396.34;4980060;28;20569;-69
2023/01/19 07:42:53;;;;;;;13.00;4.87;;;;;;;-1.67;94.99;95402.19;4980457;28;20215;-69
2023/01/19 07:45:21;;;;;;;15.40;6.40;;;;;;;-1.64;94.42;95394.19;4978615;28;20687;-69
2023/01/19 07:47:49;;;;;;;13.77;5.80;;;;;;;-1.55;94.00;95402.97;4980230;28;20234;-69
2023/01/19 07:50:20;;;;;;;14.20;5.80;;;;;;;-1.56;93.58;95402.13;4980217;28;20235;-69
2023/01/19 07:52:47;;;;;;;11.10;5.90;;;;;;;-1.49;92.58;95402.44;4979865;28;20215;-69
2023/01/19 07:55:13;;;;;;;12.37;5.70;;;;;;;-1.45;92.92;95402.06;4978915;28;20206;-69
2023/01/19 07:57:39;;;;;;;15.90;6.33;;;;;;;-1.45;92.09;95407.25;4979864;28;20686;-69
2023/01/19 08:00:07;;;;;;;11.47;5.30;;;;;;;-1.26;93.00;95403.94;4979984;28;20209;-69
2023/01/19 08:02:36;;;;;;;10.00;5.83;;;;;;;-1.30;93.75;95410.31;4979622;28;20203;-69
2023/01/19 08:05:03;;;;;;;14.47;5.47;;;;;;;-1.23;93.48;95413.09;4978546;28;20245;-69
2023/01/19 08:07:30;;;;;;;9.10;4.67;;;;;;;-1.14;92.97;95409.75;4978562;28;20226;-69
2023/01/19 08:09:56;;;;;;;9.37;5.27;;;;;;;-1.07;92.40;95412.63;4979202;28;20329;-69
2023/01/19 08:12:23;;;;;;;17.90;6.13;;;;;;;-1.12;92.02;95413.03;4980144;28;20214;-69
2023/01/19 08:14:49;;;;;;;17.93;5.87;;;;;;;-1.01;91.98;95425.84;4978740;28;20205;-69
2023/01/19 08:17:16;;;;;;;13.60;5.83;;;;;;;-1.29;93.11;95424.88;4978977;28;20230;-69
2023/01/19 08:19:43;;;;;;;13.70;5.37;;;;;;;-1.03;92.98;95430.34;4978220;28;20201;-69
2023/01/19 08:22:10;;;;;;;14.83;5.80;;;;;;;-1.09;92.36;95433.44;4979800;28;20211;-69
2023/01/19 08:24:38;;;;;;;13.63;5.83;;;;;;;-0.88;93.07;95436.84;4978710;28;20879;-69
2023/01/19 08:27:04;;;;;;;20.97;8.00;;;;;;;-0.81;91.93;95432.78;4978677;28;20210;-69
2023/01/19 08:29:32;;;;;;;12.60;5.80;;;;;;;-0.73;92.02;95440.72;4978233;28;20708;-69
2023/01/19 08:32:00;;;;;;;10.33;5.53;;;;;;;-0.43;92.11;95440.72;4978467;28;20234;-69
2023/01/19 08:34:29;;;;;;;10.67;5.33;;;;;;;-0.47;90.89;95439.31;4978634;28;20218;-69
2023/01/19 08:36:57;;;;;;;11.13;4.53;;;;;;;-0.46;91.80;95446.97;4978876;28;20214;-69
2023/01/19 08:39:23;;;;;;;15.13;5.83;;;;;;;-0.60;91.40;95442.16;4978925;28;20682;-69
2023/01/19 08:41:51;;;;;;;11.33;5.87;;;;;;;-0.58;92.43;95444.59;4978274;28;20211;-69
2023/01/19 08:44:17;;;;;;;14.57;5.63;;;;;;;-0.71;93.62;95445.75;4978608;28;20211;-69
2023/01/19 08:46:44;;;;;;;15.77;6.70;;;;;;;-0.68;93.11;95454.06;4978754;28;20214;-69
2023/01/19 08:49:11;;;;;;;21.03;7.37;;;;;;;-0.59;93.55;95454.13;4978549;28;20235;-69
2023/01/19 08:51:37;;;;;;;18.00;7.47;;;;;;;-0.54;92.32;95448.56;4978791;28;20207;-69
2023/01/19 08:54:05;;;;;;;4.43;2.90;;;;;;;-0.56;92.54;95450.44;4978358;28;20210;-69
2023/01/19 08:56:32;;;;;;;14.13;5.70;;;;;;;-0.57;93.02;95446.25;4978371;28;20210;-69
2023/01/19 08:58:58;;;;;;;18.57;5.47;;;;;;;-0.59;91.53;95448.97;4978416;28;20253;-69
2023/01/19 09:01:25;;;;;;;27.17;5.17;;;;;;;-0.63;91.78;95440.78;4979193;28;20206;-68
2023/01/19 09:03:52;;;;;;;13.73;5.97;;;;;;;-0.40;91.88;95449.03;4977521;28;20206;-69
2023/01/19 09:06:18;;;;;;;15.37;5.40;;;;;;;-0.47;92.63;95439.31;4978587;28;20212;-69
2023/01/19 09:08:45;;;;;;;17.80;6.63;;;;;;;-0.36;91.15;95447.00;4978209;28;20234;-69
2023/01/19 09:11:16;;;;;;;13.23;5.53;;;;;;;-0.20;91.71;95450.75;4979053;28;20230;-69
2023/01/19 09:13:43;;;;;;;15.83;5.60;;;;;;;-0.20;91.89;95455.09;4977528;28;20585;-69
2023/01/19 09:16:11;;;;;;;11.93;6.83;;;;;;;-0.42;91.78;95452.69;4979009;28;20222;-69
2023/01/19 09:18:38;;;;;;;7.00;3.80;;;;;;;-0.51;92.07;95451.72;4977404;28;20218;-69
2023/01/19 09:21:05;;;;;;;8.57;4.10;;;;;;;-0.35;91.76;95457.22;4978161;28;21162;-69
2023/01/19 09:23:32;;;;;;;16.73;5.60;;;;;;;-0.13;92.04;95458.78;4978044;28;20199;-69
2023/01/19 09:26:00;;;;;;;10.53;6.57;;;;;;;-0.21;91.78;95463.81;4978683;28;20221;-69
2023/01/19 09:28:29;;;;;;;14.03;5.77;;;;;;;-0.10;91.51;95467.13;4977706;28;20229;-69
2023/01/19 09:30:55;;;;;;;14.87;5.63;;;;;;;-0.37;91.41;95464.31;4977685;28;20261;-69
2023/01/19 09:33:23;;;;;;;9.07;4.03;;;;;;;-0.24;92.35;95474.41;4978784;28;20211;-69
2023/01/19 09:35:50;;;;;;;9.47;3.80;;;;;;;-0.23;90.67;95468.28;4976772;28;20222;-69
2023/01/19 09:38:18;;;;;;;8.40;4.47;;;;;;;-0.12;90.78;95463.03;4977006;28;20313;-69
2023/01/19 09:40:48;;;;;;;7.93;4.53;;;;;;;0.22;90.41;95465.16;4977879;28;20205;-69
2023/01/19 09:43:26;;;;;;;9.77;5.47;;;;;;;0.14;89.67;95462.38;4977784;28;21109;-69
2023/01/19 09:45:57;;;;;;;16.20;5.27;;;;;;;0.06;90.76;95465.66;4977565;28;20214;-69
2023/01/19 09:48:37;;;;;;;12.13;5.83;;;;;;;0.25;89.03;95468.28;4977742;28;20219;-69
2023/01/19 09:51:07;;;;;;;10.60;5.50;;;;;;;0.24;89.81;95458.06;4977849;28;20715;-69
2023/01/19 09:53:43;;;;;;;15.63;6.83;;;;;;;0.36;88.96;95449.22;4977734;28;20242;-69
2023/01/19 09:56:13;;;;;;;11.17;4.83;;;;;;;0.28;87.86;95447.31;4977850;28;20214;-69
2023/01/19 09:58:40;;;;;;;18.93;6.63;;;;;;;0.39;87.58;95454.13;4977951;28;20284;-69
2023/01/19 10:01:22;;;;;;;7.03;3.40;;;;;;;0.34;86.88;95453.72;4978217;28;20226;-69
2023/01/19 10:03:54;;;;;;;9.20;4.37;;;;;;;0.35;87.58;95447.59;4976581;28;20232;-69
2023/01/19 10:06:21;;;;;;;12.43;5.37;;;;;;;0.29;87.50;95448.09;4977529;28;20234;-69
2023/01/19 10:08:57;;;;;;;9.53;5.03;;;;;;;0.34;87.95;95451.94;4977511;28;20301;-69
2023/01/19 10:11:34;;;;;;;9.80;4.30;;;;;;;0.43;87.27;95439.94;4977995;28;20230;-69
2023/01/19 10:14:01;;;;;;;9.60;4.73;;;;;;;0.26;87.88;95453.56;4976961;28;20209;-69
2023/01/19 10:16:43;;;;;;;10.33;5.23;;;;;;;0.56;86.94;95446.50;4977657;28;20221;-69
2023/01/19 10:19:20;;;;;;;19.10;6.37;;;;;;;0.65;87.78;95441.31;4978911;28;20241;-69
2023/01/19 10:21:48;;;;;;;6.40;3.57;;;;;;;0.46;86.50;95435.31;4982001;28;20210;-69
2023/01/19 10:24:20;;;;;;;9.77;4.67;;;;;;;0.41;85.63;95436.66;4980905;28;20207;-69
2023/01/19 10:26:51;;;;;;;8.90;3.47;;;;;;;0.40;85.67;95438.44;4982003;28;20214;-69
2023/01/19 10:29:22;;;;;;;2.13;1.70;;;;;;;0.50;85.65;95436.69;4981893;28;20235;-69
2023/01/19 10:31:52;;;;;;;5.50;3.13;;;;;;;0.47;86.10;95434.38;4981784;28;20680;-69
2023/01/19 10:34:19;;;;;;;6.53;3.00;;;;;;;0.49;86.44;95427.25;4981047;28;20691;-69
2023/01/19 10:36:48;;;;;;;10.77;3.50;;;;;;;0.52;86.25;95434.75;4981084;28;20219;-69
2023/01/19 10:39:18;;;;;;;12.70;5.03;;;;;;;0.98;85.97;95429.66;4981199;28;20230;-69
2023/01/19 10:41:49;;;;;;;7.20;3.60;;;;;;;1.13;85.03;95431.69;4980542;28;20203;-69
2023/01/19 10:44:24;;;;;;;10.70;4.83;;;;;;;1.31;84.59;95427.41;4980869;28;20674;-69
2023/01/19 10:46:54;;;;;;;22.67;5.10;;;;;;;1.60;82.94;95436.72;4981316;28;20580;-69
2023/01/19 10:49:25;;;;;;;11.30;5.50;;;;;;;1.51;82.90;95432.38;4981110;28;20259;-69
2023/01/19 10:51:52;;;;;;;11.33;4.53;;;;;;;1.66;82.20;95438.75;4980673;28;20234;-69
2023/01/19 10:54:20;;;;;;;5.60;2.37;;;;;;;1.26;82.51;95438.22;4980428;28;20208;-69
2023/01/19 10:56:53;;;;;;;9.23;3.90;;;;;;;1.34;83.44;95430.53;4980496;28;20294;-69
2023/01/19 10:59:35;;;;;;;12.17;5.30;;;;;;;1.55;83.22;95428.53;4981176;28;20219;-69
2023/01/19 11:02:17;;;;;;;17.47;5.53;;;;;;;1.49;83.73;95426.53;4981398;28;20211;-69
2023/01/19 11:04:44;;;;;;;8.43;3.43;;;;;;;1.40;83.39;95432.59;4979930;28;20289;-69
2023/01/19 11:07:18;;;;;;;10.50;4.30;;;;;;;1.43;83.46;95428.88;4980060;28;20207;-69
2023/01/19 11:09:45;;;;;;;5.53;2.13;;;;;;;1.56;83.30;95426.78;4981208;28;20211;-69
2023/01/19 11:12:21;;;;;;;12.17;4.83;;;;;;;1.63;82.37;95420.88;4980129;28;20219;-70
2023/01/19 11:14:49;;;;;;;10.63;4.63;;;;;;;1.34;82.27;95424.53;4980401;28;20656;-70
2023/01/19 11:17:23;;;;;;;8.20;4.20;;;;;;;1.33;82.33;95418.53;4980612;28;20203;-70
2023/01/19 11:19:55;;;;;;;5.20;2.33;;;;;;;1.29;82.93;95422.34;4980826;28;20215;-70
2023/01/19 11:22:27;;;;;;;8.73;4.20;;;;;;;1.47;83.01;95419.84;4980473;28;20211;-70
2023/01/19 11:24:58;;;;;;;6.20;3.43;;;;;;;1.50;82.35;95416.97;4980691;28;20203;-70
2023/01/19 11:27:26;;;;;;;15.20;5.30;;;;;;;1.70;82.01;95421.94;4980213;28;20223;-70
2023/01/19 11:30:00;;;;;;;8.67;4.50;;;;;;;1.82;81.94;95411.22;4980492;28;20207;-70
2023/01/19 11:32:28;;;;;;;8.20;3.63;;;;;;;1.84;81.25;95413.66;4981382;28;20211;-70
2023/01/19 11:34:54;;;;;;;10.47;4.43;;;;;;;1.88;81.11;95407.22;4980014;28;20207;-70
2023/01/19 11:37:30;;;;;;;8.47;4.27;;;;;;;1.87;80.78;95400.38;4979966;28;21178;-70
2023/01/19 11:39:58;;;;;;;12.07;4.33;;;;;;;1.91;81.48;95399.16;4980653;28;20215;-70
2023/01/19 11:42:27;;;;;;;11.73;4.90;;;;;;;1.81;82.20;95399.19;4980880;28;20211;-70
2023/01/19 11:45:01;;;;;;;13.27;6.03;;;;;;;1.59;81.95;95410.91;4979437;28;20215;-70